Time;durP1;ratioP1;P1;durP2;ratioP2;P2;SDS_P1;SDS_P2;PMS_P1;PMS_P2;Temp;Humidity;BMP_temperature;BMP_pressure;BME280_temperature;BME280_humidity;BME280_pressure;Samples;Min_cycle;Max_cycle;Signal;HPM_P1;HPM_P2
2023/06/12 00:02:20;;;;;;;5.03;4.25;;;;;;;16.23;90.82;94061.38;5098716;28;20245;-74
2023/06/12 00:04:46;;;;;;;7.05;4.10;;;;;;;16.20;90.92;94066.78;5110579;28;20205;-74
2023/06/12 00:07:16;;;;;;;7.22;4.95;;;;;;;16.31;91.12;94067.66;5090894;28;20206;-74
2023/06/12 00:09:43;;;;;;;8.93;4.38;;;;;;;16.28;91.16;94063.75;5090739;28;20645;-75
2023/06/12 00:12:10;;;;;;;7.28;4.03;;;;;;;16.25;91.24;94064.50;5090781;28;20247;-74
2023/06/12 00:14:38;;;;;;;6.40;4.45;;;;;;;16.29;90.85;94059.84;5090509;28;20293;-74
2023/06/12 00:17:06;;;;;;;10.85;4.32;;;;;;;16.45;91.12;94067.00;5090683;28;20206;-74
2023/06/12 00:19:33;;;;;;;7.28;4.50;;;;;;;16.26;91.92;94066.06;5090605;28;20630;-74
2023/06/12 00:22:00;;;;;;;7.03;4.55;;;;;;;16.26;91.52;94068.78;5090882;28;20269;-74
2023/06/12 00:24:26;;;;;;;10.25;5.00;;;;;;;16.08;91.89;94054.19;5091182;28;20224;-74
2023/06/12 00:26:53;;;;;;;8.63;4.55;;;;;;;16.21;92.07;94058.22;5090369;28;20606;-74
2023/06/12 00:29:20;;;;;;;6.85;4.38;;;;;;;16.23;92.10;94061.38;5090337;28;20703;-74
2023/06/12 00:31:48;;;;;;;8.70;4.35;;;;;;;16.22;92.04;94061.75;5090426;28;20202;-74
2023/06/12 00:34:15;;;;;;;5.80;4.10;;;;;;;16.28;91.54;94060.22;5104355;28;20603;-74
2023/06/12 00:36:42;;;;;;;4.90;4.28;;;;;;;16.24;91.68;94052.00;5090124;28;20689;-74
2023/06/12 00:39:09;;;;;;;5.22;4.18;;;;;;;16.30;91.51;94055.94;5089738;28;20246;-74
2023/06/12 00:41:36;;;;;;;7.30;4.63;;;;;;;16.31;90.91;94046.59;5090204;28;20221;-74
2023/06/12 00:44:02;;;;;;;7.13;4.50;;;;;;;16.51;91.09;94057.31;5090390;28;20202;-74
2023/06/12 00:46:29;;;;;;;10.07;4.40;;;;;;;16.45;91.41;94062.31;5090187;28;20202;-74
2023/06/12 00:48:57;;;;;;;5.35;4.35;;;;;;;16.47;91.29;94059.22;5089862;28;20251;-74
2023/06/12 00:51:28;;;;;;;8.68;4.97;;;;;;;16.45;91.00;94061.53;5090418;28;20202;-74
2023/06/12 00:53:56;;;;;;;6.55;4.60;;;;;;;16.51;90.25;94060.03;5089854;28;20234;-74
2023/06/12 00:56:23;;;;;;;6.10;4.35;;;;;;;16.61;89.97;94062.84;5090346;28;20203;-74
2023/06/12 00:58:52;;;;;;;8.45;4.25;;;;;;;16.70;89.85;94060.59;5090779;28;20653;-74
2023/06/12 01:01:25;;;;;;;7.82;4.22;;;;;;;16.77;89.72;94062.59;5101271;28;20261;-74
2023/06/12 01:03:57;;;;;;;5.05;4.10;;;;;;;16.84;89.53;94065.38;5109386;28;20264;-74
2023/06/12 01:06:34;;;;;;;7.28;4.22;;;;;;;16.76;90.13;94055.56;5110348;28;20236;-73
2023/06/12 01:09:09;;;;;;;5.38;4.40;;;;;;;16.78;90.33;94055.97;5089830;28;20213;-74
2023/06/12 01:11:37;;;;;;;6.38;4.43;;;;;;;16.69;91.21;94059.00;5089480;28;20733;-73
2023/06/12 01:14:04;;;;;;;5.93;4.10;;;;;;;16.74;91.33;94057.88;5089916;28;20206;-74
2023/06/12 01:16:31;;;;;;;9.32;5.03;;;;;;;16.84;91.10;94057.16;5090080;28;20240;-74
2023/06/12 01:18:58;;;;;;;8.80;4.72;;;;;;;16.92;90.93;94049.81;5099436;28;20209;-74
2023/06/12 01:21:29;;;;;;;11.60;4.78;;;;;;;17.02;90.97;94052.59;5092757;28;20252;-74
2023/06/12 01:24:22;;;;;;;7.15;4.60;;;;;;;16.97;90.81;94052.94;5089483;28;20336;-73
2023/06/12 01:27:16;;;;;;;5.82;4.30;;;;;;;16.95;91.33;94052.53;5089314;28;20619;-74
2023/06/12 01:29:58;;;;;;;5.40;4.60;;;;;;;17.02;91.30;94057.28;5089023;28;20202;-74
2023/06/12 01:32:29;;;;;;;8.43;4.97;;;;;;;16.80;92.49;94050.91;5089548;28;20198;-74
2023/06/12 01:35:05;;;;;;;6.95;4.88;;;;;;;16.82;92.77;94056.75;5098449;28;20198;-73
2023/06/12 01:37:35;;;;;;;7.88;5.43;;;;;;;16.98;92.31;94057.25;5109592;28;20202;-73
2023/06/12 01:40:07;;;;;;;6.90;4.93;;;;;;;16.98;92.84;94062.72;5109302;28;20283;-73
2023/06/12 01:42:34;;;;;;;12.05;4.90;;;;;;;16.92;93.41;94052.53;5108952;28;20685;-73
2023/06/12 01:45:01;;;;;;;6.43;4.53;;;;;;;16.88;93.86;94055.25;5108951;28;20212;-73
2023/06/12 01:47:29;;;;;;;5.82;4.38;;;;;;;16.88;93.69;94057.97;5108529;28;20560;-73
2023/06/12 01:49:57;;;;;;;6.68;5.03;;;;;;;16.91;92.98;94057.22;5109630;28;20224;-73
2023/06/12 01:52:24;;;;;;;11.13;5.30;;;;;;;16.91;93.06;94049.03;5109610;28;20209;-73
2023/06/12 01:54:50;;;;;;;6.03;4.55;;;;;;;16.96;92.96;94037.69;5109528;28;20209;-73
2023/06/12 01:57:19;;;;;;;11.65;5.22;;;;;;;16.97;92.77;94049.44;5108772;28;20262;-73
2023/06/12 01:59:46;;;;;;;11.05;5.40;;;;;;;16.93;93.04;94051.38;5095786;28;20194;-73
2023/06/12 02:02:13;;;;;;;7.03;4.88;;;;;;;17.01;92.37;94050.25;5088075;28;20233;-73
2023/06/12 02:04:41;;;;;;;9.35;5.60;;;;;;;16.83;92.94;94060.28;5088719;28;20267;-73
2023/06/12 02:07:08;;;;;;;9.70;4.90;;;;;;;16.70;93.80;94057.06;5089026;28;20614;-73
2023/06/12 02:09:35;;;;;;;11.00;5.13;;;;;;;16.53;94.56;94060.44;5088779;28;20257;-73
2023/06/12 02:12:02;;;;;;;8.65;5.50;;;;;;;16.43;96.08;94064.66;5088736;28;20275;-73
2023/06/12 02:14:29;;;;;;;9.07;5.40;;;;;;;16.67;94.73;94063.31;5089057;28;20242;-73
2023/06/12 02:16:56;;;;;;;8.32;4.97;;;;;;;16.77;94.56;94057.13;5088887;28;20700;-74
2023/06/12 02:19:25;;;;;;;7.30;5.22;;;;;;;16.80;93.96;94058.31;5102232;28;20250;-73
2023/06/12 02:21:53;;;;;;;8.20;4.93;;;;;;;16.80;94.01;94067.31;5088641;28;20206;-73
2023/06/12 02:24:20;;;;;;;10.70;5.18;;;;;;;16.72;93.50;94065.69;5088752;28;20307;-73
2023/06/12 02:26:47;;;;;;;7.55;5.13;;;;;;;16.72;93.32;94067.63;5097939;28;20197;-73
2023/06/12 02:29:15;;;;;;;10.40;5.55;;;;;;;16.98;93.29;94076.41;5092524;28;20556;-73
2023/06/12 02:31:41;;;;;;;8.40;4.93;;;;;;;17.10;92.76;94080.00;5103754;28;20189;-73
2023/06/12 02:34:08;;;;;;;10.48;6.10;;;;;;;17.20;91.76;94065.59;5106643;28;20661;-73
2023/06/12 02:36:39;;;;;;;7.70;5.85;;;;;;;17.27;91.30;94073.84;5088609;28;20202;-74
2023/06/12 02:39:08;;;;;;;9.40;5.68;;;;;;;17.31;91.18;94069.19;5100836;28;20288;-73
2023/06/12 02:41:35;;;;;;;10.43;5.60;;;;;;;17.36;91.32;94074.25;5095913;28;20239;-73
2023/06/12 02:44:01;;;;;;;7.93;5.75;;;;;;;17.34;91.73;94079.38;5097203;28;20226;-73
2023/06/12 02:46:28;;;;;;;8.40;5.20;;;;;;;17.28;92.15;94069.94;5099120;28;20251;-73
2023/06/12 02:48:55;;;;;;;8.48;5.40;;;;;;;17.30;92.28;94078.56;5095641;28;20563;-73
2023/06/12 02:51:21;;;;;;;7.63;5.25;;;;;;;17.33;92.06;94077.78;5095952;28;20256;-73
2023/06/12 02:53:48;;;;;;;7.28;5.47;;;;;;;17.32;91.64;94081.69;5097793;28;20202;-73
2023/06/12 02:56:16;;;;;;;9.93;5.68;;;;;;;17.35;91.93;94086.41;5098320;28;20228;-73
2023/06/12 02:58:44;;;;;;;9.10;5.68;;;;;;;17.29;92.32;94088.72;5096424;28;20205;-73
2023/06/12 03:01:11;;;;;;;9.05;6.90;;;;;;;17.34;92.15;94087.56;5098741;28;20705;-73
2023/06/12 03:03:39;;;;;;;10.40;6.32;;;;;;;17.36;92.16;94093.44;5094369;28;20270;-73
2023/06/12 03:06:07;;;;;;;7.80;5.60;;;;;;;17.22;92.17;94093.38;5100979;28;20607;-73
2023/06/12 03:08:34;;;;;;;12.38;6.32;;;;;;;16.95;94.18;94096.31;5094782;28;20237;-73
2023/06/12 03:11:01;;;;;;;9.32;6.72;;;;;;;16.84;95.21;94095.47;5100864;28;20205;-73
2023/06/12 03:13:29;;;;;;;10.82;7.20;;;;;;;16.86;95.73;94104.09;5101985;28;20202;-73
2023/06/12 03:15:56;;;;;;;9.77;6.60;;;;;;;17.14;95.28;94091.75;5100621;28;20210;-74
2023/06/12 03:18:23;;;;;;;9.07;6.35;;;;;;;17.27;93.86;94103.94;5100818;28;20198;-74
2023/06/12 03:20:49;;;;;;;10.75;6.75;;;;;;;17.26;93.01;94094.94;5100557;28;20271;-73
2023/06/12 03:23:16;;;;;;;9.18;6.10;;;;;;;17.15;93.47;94099.59;5099185;28;20230;-74
2023/06/12 03:25:43;;;;;;;11.80;6.43;;;;;;;17.09;94.10;94098.38;5101700;28;20190;-75
2023/06/12 03:28:10;;;;;;;10.02;6.78;;;;;;;17.11;93.79;94098.78;5098582;28;20202;-73
2023/06/12 03:30:38;;;;;;;11.77;7.20;;;;;;;17.15;93.76;94096.06;5102112;28;20292;-73
2023/06/12 03:33:05;;;;;;;12.20;7.53;;;;;;;17.39;93.72;94098.16;5098407;28;20201;-75
2023/06/12 03:35:32;;;;;;;9.32;6.15;;;;;;;17.52;93.13;94090.38;5111696;28;20206;-74
2023/06/12 03:37:59;;;;;;;9.10;6.20;;;;;;;17.68;92.45;94088.91;5112003;28;20342;-74
2023/06/12 03:40:26;;;;;;;9.57;5.93;;;;;;;17.73;92.39;94091.31;5111683;28;20279;-74
2023/06/12 03:42:52;;;;;;;13.27;6.40;;;;;;;17.75;92.05;94088.97;5111090;28;20225;-74
2023/06/12 03:45:19;;;;;;;10.95;5.60;;;;;;;17.85;91.47;94089.38;5097984;28;20206;-74
2023/06/12 03:47:47;;;;;;;9.80;8.00;;;;;;;17.95;90.62;94085.88;5091055;28;20297;-74
2023/06/12 03:50:14;;;;;;;9.35;6.45;;;;;;;17.63;90.70;94091.22;5090717;28;20259;-75
2023/06/12 03:52:41;;;;;;;9.48;6.15;;;;;;;17.53;91.13;94090.00;5098642;28;20206;-74
2023/06/12 03:55:08;;;;;;;11.00;6.90;;;;;;;17.61;91.17;94083.41;5097489;28;20271;-74
2023/06/12 03:57:36;;;;;;;12.88;6.95;;;;;;;17.81;91.29;94072.13;5098985;28;20212;-74
2023/06/12 04:00:03;;;;;;;11.70;6.65;;;;;;;17.96;90.87;94081.97;5097313;28;20202;-74
2023/06/12 04:02:31;;;;;;;10.52;6.57;;;;;;;18.10;90.33;94076.53;5090439;28;20226;-74
2023/06/12 04:05:00;;;;;;;8.70;6.47;;;;;;;18.33;89.01;94079.69;5090123;28;20231;-73
2023/06/12 04:07:28;;;;;;;13.52;7.40;;;;;;;18.45;88.96;94082.03;5091473;28;20641;-74
2023/06/12 04:09:55;;;;;;;13.18;7.03;;;;;;;18.65;87.59;94084.44;5100333;28;20232;-74
2023/06/12 04:12:22;;;;;;;13.15;7.25;;;;;;;18.54;86.82;94094.59;5098453;28;20285;-74
2023/06/12 04:14:49;;;;;;;9.00;6.50;;;;;;;18.82;85.68;94089.16;5095683;28;20247;-74
2023/06/12 04:17:17;;;;;;;10.57;7.10;;;;;;;19.40;83.73;94090.63;5097168;28;20202;-73
2023/06/12 04:19:43;;;;;;;10.25;6.82;;;;;;;20.06;80.28;94083.31;5090660;28;20679;-74
2023/06/12 04:22:12;;;;;;;11.00;6.10;;;;;;;20.46;76.76;94083.91;5097047;28;20217;-73
2023/06/12 04:24:42;;;;;;;9.18;6.80;;;;;;;19.78;78.14;94086.22;5093762;28;20238;-73
2023/06/12 04:27:09;;;;;;;10.23;6.28;;;;;;;19.44;79.37;94085.91;5095011;28;20263;-73
2023/06/12 04:29:38;;;;;;;8.90;6.65;;;;;;;19.79;77.43;94082.28;5102674;28;20207;-73
2023/06/12 04:32:06;;;;;;;8.00;6.43;;;;;;;19.81;77.53;94083.44;5090757;28;20195;-73
2023/06/12 04:34:39;;;;;;;10.18;8.57;;;;;;;20.31;76.54;94077.69;5095915;28;20233;-73
2023/06/12 04:37:08;;;;;;;10.25;7.68;;;;;;;20.78;74.68;94072.63;5097155;28;20206;-73
2023/06/12 04:39:37;;;;;;;8.25;6.75;;;;;;;21.26;73.97;94065.13;5090188;28;20717;-73
2023/06/12 04:42:05;;;;;;;13.10;6.78;;;;;;;22.66;69.90;94071.25;5103857;28;20206;-74
2023/06/12 04:44:34;;;;;;;10.32;6.65;;;;;;;23.63;64.65;94064.88;5090010;28;20237;-73
2023/06/12 04:47:04;;;;;;;11.32;6.60;;;;;;;24.68;61.88;94060.28;5090132;28;20229;-73
2023/06/12 04:49:32;;;;;;;12.90;6.30;;;;;;;25.48;58.98;94062.22;5098874;28;20213;-74
2023/06/12 04:52:00;;;;;;;10.73;5.93;;;;;;;25.52;57.63;94055.81;5094601;28;20756;-73
2023/06/12 04:54:30;;;;;;;8.60;6.32;;;;;;;24.96;58.90;94064.38;5090082;28;20206;-74
2023/06/12 04:56:58;;;;;;;11.85;7.10;;;;;;;24.43;61.00;94061.63;5089593;28;20248;-74
2023/06/12 04:59:26;;;;;;;10.38;7.32;;;;;;;24.24;61.67;94064.44;5090381;28;20665;-73
2023/06/12 05:01:53;;;;;;;10.05;6.35;;;;;;;23.97;62.28;94068.13;5102971;28;20275;-73
2023/06/12 05:04:19;;;;;;;10.75;6.47;;;;;;;23.57;63.58;94070.13;5089719;28;20696;-73
2023/06/12 05:06:46;;;;;;;13.85;6.65;;;;;;;23.30;64.64;94070.19;5089636;28;20214;-73
2023/06/12 05:09:13;;;;;;;11.65;7.55;;;;;;;23.50;64.61;94074.97;5090118;28;20205;-73
2023/06/12 05:11:39;;;;;;;11.32;7.68;;;;;;;22.18;67.46;94084.56;5102903;28;20301;-73
2023/06/12 05:14:08;;;;;;;12.07;7.65;;;;;;;21.87;68.73;94084.53;5089758;28;20237;-73
2023/06/12 05:16:34;;;;;;;10.73;6.88;;;;;;;21.94;70.01;94080.91;5089741;28;20214;-74
2023/06/12 05:19:01;;;;;;;9.70;7.10;;;;;;;21.65;69.86;94094.25;5089586;28;20611;-74
2023/06/12 05:21:28;;;;;;;12.38;7.40;;;;;;;21.54;70.30;94088.06;5088903;28;20297;-74
2023/06/12 05:23:55;;;;;;;12.52;8.07;;;;;;;21.64;69.73;94089.94;5089134;28;20642;-74
2023/06/12 05:26:23;;;;;;;10.85;8.15;;;;;;;22.38;67.45;94082.72;5089377;28;20654;-74
2023/06/12 05:28:50;;;;;;;13.55;6.28;;;;;;;23.36;64.74;94087.88;5089078;28;20247;-72
2023/06/12 05:31:18;;;;;;;10.52;6.60;;;;;;;23.58;63.05;94079.19;5089687;28;20703;-72
2023/06/12 05:33:45;;;;;;;8.65;7.05;;;;;;;23.14;63.72;94089.41;5089341;28;20271;-72
2023/06/12 05:36:11;;;;;;;9.80;6.97;;;;;;;22.99;64.68;94090.84;5102844;28;20218;-74
2023/06/12 05:38:38;;;;;;;11.48;8.48;;;;;;;22.61;65.86;94084.72;5089171;28;20315;-73
2023/06/12 05:41:05;;;;;;;12.05;8.32;;;;;;;22.87;65.38;94094.22;5102944;28;20653;-72
2023/06/12 05:43:33;;;;;;;14.63;8.52;;;;;;;22.52;66.49;94092.75;5101718;28;20697;-74
2023/06/12 05:46:00;;;;;;;11.48;8.23;;;;;;;23.23;64.52;94097.19;5089668;28;20213;-74
2023/06/12 05:48:28;;;;;;;8.93;7.50;;;;;;;23.65;63.96;94098.41;5089361;28;20210;-74
2023/06/12 05:50:55;;;;;;;9.48;7.43;;;;;;;23.61;62.15;94100.47;5102992;28;20279;-72
2023/06/12 05:53:21;;;;;;;11.07;7.60;;;;;;;23.01;64.00;94103.06;5088639;28;20738;-73
2023/06/12 05:55:48;;;;;;;12.10;7.43;;;;;;;22.99;64.94;94093.63;5088965;28;20738;-73
2023/06/12 05:58:15;;;;;;;12.40;8.10;;;;;;;22.99;64.89;94099.16;5089040;28;20202;-73
2023/06/12 06:00:43;;;;;;;10.57;7.45;;;;;;;23.14;64.43;94094.94;5088904;28;20238;-74
2023/06/12 06:03:10;;;;;;;11.13;7.63;;;;;;;22.55;65.91;94103.72;5089072;28;20217;-73
2023/06/12 06:05:38;;;;;;;7.60;6.80;;;;;;;22.88;64.72;94093.03;5089105;28;20206;-73
2023/06/12 06:08:06;;;;;;;10.23;7.65;;;;;;;23.26;62.76;94091.56;5102720;28;20197;-73
2023/06/12 06:10:33;;;;;;;10.90;6.68;;;;;;;23.47;61.40;94095.97;5088852;28;20259;-73
2023/06/12 06:13:00;;;;;;;11.15;6.65;;;;;;;23.35;62.90;94089.06;5089079;28;20248;-73
2023/06/12 06:15:26;;;;;;;12.43;6.88;;;;;;;23.77;63.14;94097.78;5088850;28;20252;-73
2023/06/12 06:17:53;;;;;;;9.57;7.43;;;;;;;23.78;63.03;94093.81;5088917;28;20255;-73
2023/06/12 06:20:20;;;;;;;18.23;6.78;;;;;;;22.94;61.95;94100.44;5088689;28;20727;-73
2023/06/12 06:22:48;;;;;;;11.10;6.63;;;;;;;22.65;62.41;94093.75;5088543;28;20639;-72
2023/06/12 06:25:17;;;;;;;7.53;6.13;;;;;;;22.81;62.08;94104.19;5088900;28;20245;-72
2023/06/12 06:27:43;;;;;;;10.77;6.57;;;;;;;22.80;62.26;94097.09;5088864;28;20217;-73
2023/06/12 06:30:11;;;;;;;11.05;6.35;;;;;;;22.74;63.60;94094.00;5097432;28;20205;-73
2023/06/12 06:32:38;;;;;;;13.00;6.97;;;;;;;22.33;64.06;94094.22;5094175;28;20263;-74
2023/06/12 06:35:05;;;;;;;10.57;6.45;;;;;;;22.73;64.22;94097.19;5103046;28;20247;-74
2023/06/12 06:37:32;;;;;;;9.85;6.85;;;;;;;22.59;62.84;94095.41;5109672;28;20267;-74
2023/06/12 06:40:00;;;;;;;11.55;6.50;;;;;;;23.21;62.70;94089.31;5091955;28;20704;-73
2023/06/12 06:42:29;;;;;;;8.60;6.70;;;;;;;23.05;61.84;94094.72;5092920;28;20702;-73
2023/06/12 06:44:55;;;;;;;10.70;6.97;;;;;;;22.38;63.42;94099.28;5092264;28;20241;-74
2023/06/12 06:47:22;;;;;;;9.60;6.72;;;;;;;21.80;65.34;94103.91;5097290;28;20290;-74
2023/06/12 06:49:49;;;;;;;9.20;6.63;;;;;;;21.95;65.65;94094.28;5101134;28;20214;-73
2023/06/12 06:52:17;;;;;;;11.15;6.60;;;;;;;22.49;64.47;94099.91;5092222;28;20669;-74
2023/06/12 06:54:44;;;;;;;10.65;7.13;;;;;;;22.28;64.87;94102.94;5091332;28;20677;-74
2023/06/12 06:57:12;;;;;;;11.77;6.50;;;;;;;22.46;64.31;94097.97;5091304;28;20264;-73
2023/06/12 06:59:38;;;;;;;13.25;6.28;;;;;;;22.50;64.42;94095.94;5092374;28;20530;-73
2023/06/12 07:02:05;;;;;;;10.75;6.22;;;;;;;22.88;63.78;94093.03;5092027;28;20279;-74
2023/06/12 07:04:32;;;;;;;7.45;5.40;;;;;;;23.55;62.18;94078.03;5092045;28;20672;-73
2023/06/12 07:06:59;;;;;;;10.18;5.95;;;;;;;23.89;60.69;94083.31;5091867;28;20298;-74
2023/06/12 07:09:26;;;;;;;12.15;6.32;;;;;;;23.87;61.04;94091.25;5091738;28;20255;-74
2023/06/12 07:11:52;;;;;;;8.93;5.68;;;;;;;23.67;60.63;94088.47;5097061;28;20209;-74
2023/06/12 07:14:21;;;;;;;14.30;6.05;;;;;;;23.54;62.20;94089.53;5100039;28;21054;-74
2023/06/12 07:16:47;;;;;;;8.05;6.03;;;;;;;24.00;60.20;94089.41;5091678;28;20503;-74
2023/06/12 07:19:14;;;;;;;8.20;5.93;;;;;;;24.27;59.95;94086.50;5092216;28;20259;-73
2023/06/12 07:21:41;;;;;;;8.20;5.75;;;;;;;25.25;56.82;94081.09;5105537;28;20780;-73
2023/06/12 07:24:08;;;;;;;11.73;5.57;;;;;;;26.38;53.77;94082.75;5092085;28;20226;-74
2023/06/12 07:26:34;;;;;;;9.38;5.70;;;;;;;26.31;53.44;94080.97;5091541;28;20719;-74
2023/06/12 07:29:03;;;;;;;12.57;5.50;;;;;;;26.33;53.50;94077.75;5091471;28;20606;-74
2023/06/12 07:31:31;;;;;;;10.63;5.88;;;;;;;26.12;53.40;94076.34;5091687;28;20683;-73
2023/06/12 07:33:58;;;;;;;11.27;5.68;;;;;;;26.20;54.27;94084.03;5091930;28;20202;-75
2023/06/12 07:36:25;;;;;;;10.68;4.80;;;;;;;25.93;53.20;94072.53;5112372;28;20209;-74
2023/06/12 07:38:52;;;;;;;7.97;4.53;;;;;;;26.26;52.89;94075.16;5097642;28;20236;-74
2023/06/12 07:41:19;;;;;;;7.22;4.85;;;;;;;26.16;52.07;94080.56;5091822;28;20617;-74
2023/06/12 07:43:46;;;;;;;6.78;4.50;;;;;;;26.13;52.37;94084.22;5090869;28;20202;-74
2023/06/12 07:46:12;;;;;;;7.65;4.60;;;;;;;26.07;51.90;94079.69;5091171;28;20661;-74
2023/06/12 07:48:41;;;;;;;9.25;4.43;;;;;;;26.55;53.06;94079.44;5091200;28;20252;-74
2023/06/12 07:51:07;;;;;;;7.65;4.45;;;;;;;26.46;52.03;94089.66;5091578;28;20206;-74
2023/06/12 07:53:34;;;;;;;6.07;3.78;;;;;;;26.02;50.21;94078.22;5091188;28;20210;-74
2023/06/12 07:56:01;;;;;;;9.60;4.90;;;;;;;25.33;52.60;94077.69;5091023;28;20206;-74
2023/06/12 07:58:27;;;;;;;7.25;4.25;;;;;;;25.97;51.10;94078.75;5091595;28;20338;-74
2023/06/12 08:00:55;;;;;;;8.50;4.20;;;;;;;27.01;50.12;94084.81;5099903;28;20275;-72
2023/06/12 08:03:24;;;;;;;7.68;4.50;;;;;;;27.23;50.72;94071.75;5109386;28;20682;-72
2023/06/12 08:05:53;;;;;;;7.65;3.95;;;;;;;26.95;51.25;94086.56;5090798;28;20266;-73
2023/06/12 08:08:20;;;;;;;6.45;4.82;;;;;;;26.18;51.18;94086.47;5091054;28;20255;-73
2023/06/12 08:10:47;;;;;;;6.07;4.32;;;;;;;26.35;51.31;94083.66;5090830;28;20300;-73
2023/06/12 08:13:13;;;;;;;5.55;4.78;;;;;;;26.64;49.98;94087.13;5090121;28;20221;-73
2023/06/12 08:15:40;;;;;;;9.02;4.50;;;;;;;27.17;49.47;94077.13;5090248;28;20248;-74
2023/06/12 08:18:07;;;;;;;9.95;4.43;;;;;;;28.40;47.17;94081.56;5089726;28;20704;-73
2023/06/12 08:20:34;;;;;;;9.05;4.75;;;;;;;29.00;45.96;94079.22;5090051;28;20259;-73
2023/06/12 08:23:02;;;;;;;8.50;4.40;;;;;;;29.54;44.23;94071.47;5090349;28;20381;-73
2023/06/12 08:25:28;;;;;;;7.03;4.15;;;;;;;29.98;43.74;94074.78;5091069;28;20294;-73
2023/06/12 08:27:57;;;;;;;5.78;4.25;;;;;;;30.04;43.22;94065.31;5104188;28;20297;-73
2023/06/12 08:30:23;;;;;;;7.82;4.40;;;;;;;30.18;42.72;94069.50;5090866;28;20562;-73
2023/06/12 08:32:50;;;;;;;6.93;4.35;;;;;;;30.45;42.65;94076.28;5090242;28;20263;-73
2023/06/12 08:35:17;;;;;;;7.88;4.10;;;;;;;30.42;42.48;94071.63;5102567;28;20254;-73
2023/06/12 08:37:44;;;;;;;7.07;4.25;;;;;;;30.22;41.64;94075.66;5092279;28;20688;-73
2023/06/12 08:40:12;;;;;;;7.80;4.32;;;;;;;29.37;44.11;94072.97;5089720;28;20237;-72
2023/06/12 08:42:44;;;;;;;7.65;4.75;;;;;;;28.54;45.53;94080.25;5090644;28;20228;-73
2023/06/12 08:45:15;;;;;;;8.27;4.60;;;;;;;27.42;49.78;94089.41;5090113;28;20267;-73
2023/06/12 08:47:46;;;;;;;8.77;4.57;;;;;;;27.57;51.37;94088.50;5090323;28;20281;-73
2023/06/12 08:50:13;;;;;;;6.57;4.22;;;;;;;27.42;51.46;94087.41;5090402;28;20254;-73
2023/06/12 08:52:42;;;;;;;6.45;4.97;;;;;;;28.00;50.19;94080.66;5102931;28;20210;-73
2023/06/12 08:55:10;;;;;;;11.48;4.40;;;;;;;28.15;50.48;94081.69;5090698;28;20271;-72
2023/06/12 08:57:39;;;;;;;7.85;4.50;;;;;;;27.30;50.54;94079.88;5100737;28;20198;-72
2023/06/12 09:00:13;;;;;;;6.95;4.03;;;;;;;26.93;50.54;94089.81;5091255;28;20209;-73
2023/06/12 09:02:45;;;;;;;6.80;3.40;;;;;;;25.50;52.55;94087.53;5110211;28;20205;-72
2023/06/12 09:05:15;;;;;;;8.02;3.22;;;;;;;24.56;55.17;94106.06;5109438;28;20236;-74
2023/06/12 09:07:45;;;;;;;7.13;3.22;;;;;;;24.36;55.80;94094.22;5110359;28;20197;-73
2023/06/12 09:10:11;;;;;;;3.55;2.83;;;;;;;24.38;55.61;94098.13;5109605;28;20545;-73
2023/06/12 09:12:43;;;;;;;5.70;3.00;;;;;;;24.30;56.58;94090.41;5109715;28;20680;-73
2023/06/12 09:15:10;;;;;;;5.40;3.50;;;;;;;24.25;57.57;94091.69;5104334;28;20198;-74
2023/06/12 09:17:40;;;;;;;6.25;3.13;;;;;;;24.35;56.15;94087.13;5089873;28;20213;-73
2023/06/12 09:20:08;;;;;;;5.60;2.88;;;;;;;24.18;56.49;94088.28;5089067;28;20558;-74
2023/06/12 09:22:38;;;;;;;4.28;2.55;;;;;;;24.84;56.03;94074.13;5089324;28;20222;-74
2023/06/12 09:25:07;;;;;;;5.03;2.90;;;;;;;25.19;55.05;94078.03;5089183;28;20236;-74
2023/06/12 09:27:43;;;;;;;4.30;2.92;;;;;;;25.38;55.02;94062.53;5103373;28;20206;-74
2023/06/12 09:30:11;;;;;;;8.25;2.80;;;;;;;25.10;54.43;94069.56;5089540;28;20209;-73
2023/06/12 09:32:38;;;;;;;6.55;3.47;;;;;;;25.41;55.74;94067.97;5089538;28;20564;-73
2023/06/12 09:35:05;;;;;;;8.40;3.95;;;;;;;24.93;58.09;94071.56;5098658;28;20660;-73
2023/06/12 09:37:32;;;;;;;5.82;3.13;;;;;;;24.84;59.93;94067.81;5108812;28;20251;-73
2023/06/12 09:40:09;;;;;;;5.10;2.92;;;;;;;24.65;59.00;94072.22;5108519;28;20239;-73
2023/06/12 09:42:36;;;;;;;5.85;3.30;;;;;;;24.28;59.22;94059.59;5109188;28;20716;-74
2023/06/12 09:45:13;;;;;;;3.90;3.50;;;;;;;24.26;59.14;94062.03;5109631;28;20314;-72
2023/06/12 09:47:45;;;;;;;8.40;3.75;;;;;;;24.86;58.41;94048.78;5109254;28;20201;-73
2023/06/12 09:50:12;;;;;;;8.30;3.65;;;;;;;25.41;58.34;94040.25;5109657;28;20320;-74
2023/06/12 09:52:41;;;;;;;5.68;3.65;;;;;;;25.94;57.00;94043.56;5109972;28;20220;-73
2023/06/12 09:55:12;;;;;;;5.32;3.28;;;;;;;24.99;58.08;94052.44;5109249;28;20198;-73
2023/06/12 09:57:40;;;;;;;4.75;3.05;;;;;;;24.64;59.01;94059.56;5109906;28;20201;-73
2023/06/12 10:00:11;;;;;;;5.72;3.20;;;;;;;24.22;60.12;94050.19;5093494;28;20229;-73
2023/06/12 10:02:41;;;;;;;7.15;2.97;;;;;;;23.98;61.35;94047.56;5089539;28;20198;-73
2023/06/12 10:05:16;;;;;;;8.10;2.97;;;;;;;24.18;60.22;94055.06;5088931;28;20653;-73
2023/06/12 10:07:48;;;;;;;6.82;3.28;;;;;;;24.62;59.71;94046.16;5089222;28;20209;-75
2023/06/12 10:10:16;;;;;;;5.35;3.30;;;;;;;24.87;57.39;94050.31;5093263;28;20198;-73
2023/06/12 10:12:43;;;;;;;12.63;4.00;;;;;;;24.66;59.85;94046.06;5093373;28;20213;-73
2023/06/12 10:15:12;;;;;;;8.43;3.58;;;;;;;24.27;60.76;94049.75;5098763;28;20577;-73
2023/06/12 10:17:41;;;;;;;7.93;3.90;;;;;;;24.17;61.33;94053.50;5100581;28;20658;-73
2023/06/12 10:20:10;;;;;;;5.88;3.15;;;;;;;24.13;61.06;94058.31;5092722;28;20730;-73
2023/06/12 10:22:37;;;;;;;7.25;3.65;;;;;;;24.06;59.87;94054.47;5093096;28;20226;-74
2023/06/12 10:25:05;;;;;;;7.85;3.47;;;;;;;24.03;60.68;94052.59;5092656;28;20647;-73
2023/06/12 10:27:33;;;;;;;5.03;3.35;;;;;;;24.27;60.79;94046.97;5092898;28;20611;-74
2023/06/12 10:30:01;;;;;;;5.43;3.50;;;;;;;24.95;58.72;94035.09;5100538;28;20726;-73
2023/06/12 10:32:32;;;;;;;7.22;3.42;;;;;;;25.17;58.23;94036.09;5098176;28;20736;-73
2023/06/12 10:35:01;;;;;;;9.50;3.28;;;;;;;25.35;58.04;94036.44;5101299;28;20210;-73
2023/06/12 10:37:30;;;;;;;5.80;3.70;;;;;;;25.23;55.81;94028.84;5113239;28;20209;-73
2023/06/12 10:40:10;;;;;;;5.18;3.13;;;;;;;25.39;56.75;94026.03;5102454;28;20723;-73
2023/06/12 10:42:41;;;;;;;5.85;3.15;;;;;;;25.72;55.28;94028.72;5092521;28;20292;-73
2023/06/12 10:45:16;;;;;;;5.20;3.08;;;;;;;25.70;54.13;94025.59;5092465;28;20230;-73
2023/06/12 10:47:42;;;;;;;3.72;2.60;;;;;;;25.98;52.46;94010.91;5105814;28;20699;-73
2023/06/12 10:50:11;;;;;;;6.55;2.17;;;;;;;26.01;50.45;94020.34;5092379;28;20656;-74
2023/06/12 10:52:53;;;;;;;5.38;2.15;;;;;;;25.97;49.96;94019.69;5092677;28;20653;-73
2023/06/12 10:55:25;;;;;;;6.30;2.10;;;;;;;26.09;52.36;94022.50;5092076;28;20567;-74
2023/06/12 10:57:53;;;;;;;3.72;1.92;;;;;;;26.22;50.12;94021.72;5103217;28;20194;-73
2023/06/12 11:00:22;;;;;;;2.58;2.17;;;;;;;26.06;50.75;94017.81;5108075;28;20283;-73
2023/06/12 11:02:58;;;;;;;2.92;2.25;;;;;;;25.85;52.11;94018.44;5092266;28;20202;-73
2023/06/12 11:05:27;;;;;;;7.68;2.72;;;;;;;26.27;52.87;94010.06;5097762;28;20217;-73
2023/06/12 11:07:58;;;;;;;7.57;2.97;;;;;;;25.39;52.96;94003.84;5099488;28;20206;-74
2023/06/12 11:10:25;;;;;;;5.30;2.95;;;;;;;25.91;53.28;94000.03;5092009;28;20207;-73
2023/06/12 11:12:52;;;;;;;3.60;3.15;;;;;;;26.67;54.12;93993.75;5092092;28;20206;-74
2023/06/12 11:15:19;;;;;;;4.18;3.03;;;;;;;27.10;51.27;93996.69;5091703;28;20206;-73
2023/06/12 11:17:46;;;;;;;4.63;3.30;;;;;;;27.32;52.63;93990.41;5092177;28;20206;-74
2023/06/12 11:20:14;;;;;;;6.90;3.95;;;;;;;27.03;51.91;93994.16;5098316;28;20250;-74
2023/06/12 11:22:42;;;;;;;5.85;3.60;;;;;;;26.94;54.60;93996.06;5102301;28;20221;-73
2023/06/12 11:25:09;;;;;;;5.95;3.42;;;;;;;26.74;51.86;93991.53;5096935;28;20251;-73
2023/06/12 11:27:37;;;;;;;4.35;3.40;;;;;;;27.06;52.53;93996.03;5098897;28;20220;-73
2023/06/12 11:30:11;;;;;;;6.55;3.15;;;;;;;27.15;49.09;93978.66;5099980;28;20579;-74
2023/06/12 11:32:38;;;;;;;4.65;2.53;;;;;;;27.22;46.89;93989.53;5099373;28;20205;-74
2023/06/12 11:35:06;;;;;;;4.70;3.15;;;;;;;27.78;46.85;93994.31;5102616;28;20202;-74
2023/06/12 11:37:34;;;;;;;3.97;2.80;;;;;;;27.74;46.20;93996.47;5096396;28;20206;-74